createdAt,value
2023-02-16T00:01:00.259Z,33.83
2023-02-16T00:03:27.483Z,38.00
2023-02-16T00:05:54.350Z,42.80
2023-02-16T00:08:21.189Z,37.60
2023-02-16T00:11:08.153Z,39.20
2023-02-16T00:13:44.374Z,34.40
2023-02-16T00:16:19.494Z,33.47
2023-02-16T00:18:47.230Z,34.17
2023-02-16T00:21:15.388Z,33.27
2023-02-16T00:23:42.360Z,31.47
2023-02-16T00:26:23.397Z,30.47
2023-02-16T00:28:58.570Z,35.73
2023-02-16T00:31:27.773Z,35.90
2023-02-16T00:33:54.889Z,35.30
2023-02-16T00:36:22.137Z,39.47
2023-02-16T00:38:48.961Z,38.00
2023-02-16T00:41:42.568Z,33.07
2023-02-16T00:44:38.732Z,33.87
2023-02-16T00:47:41.950Z,37.67
2023-02-16T00:50:18.150Z,36.80
2023-02-16T00:52:47.433Z,34.10
2023-02-16T00:55:20.264Z,34.70
2023-02-16T00:58:24.558Z,39.90
2023-02-16T01:01:03.379Z,33.73
2023-02-16T01:03:30.349Z,41.07
2023-02-16T01:06:16.188Z,39.13
2023-02-16T01:09:01.841Z,34.93
2023-02-16T01:11:29.484Z,34.33
2023-02-16T01:13:57.531Z,38.53
2023-02-16T01:16:35.024Z,36.27
2023-02-16T01:19:01.969Z,36.77
2023-02-16T01:21:28.806Z,41.13
2023-02-16T01:23:55.778Z,36.37
2023-02-16T01:26:22.925Z,34.60
2023-02-16T01:28:49.865Z,37.53
2023-02-16T01:31:17.966Z,33.93
2023-02-16T01:33:45.038Z,34.70
2023-02-16T01:36:36.463Z,30.73
2023-02-16T01:39:03.829Z,31.03
2023-02-16T01:42:11.485Z,32.03
2023-02-16T01:44:51.099Z,32.43
2023-02-16T01:47:44.968Z,34.40
2023-02-16T01:50:28.915Z,33.50
2023-02-16T01:53:00.207Z,39.10
2023-02-16T01:55:35.038Z,40.03
2023-02-16T01:58:19.468Z,34.87
2023-02-16T02:00:49.230Z,39.70
2023-02-16T02:03:46.874Z,37.17
2023-02-16T02:06:19.865Z,35.60
2023-02-16T02:08:55.064Z,36.93
2023-02-16T02:11:39.879Z,30.63
2023-02-16T02:14:15.965Z,35.43
2023-02-16T02:17:05.528Z,32.23
2023-02-16T02:20:11.054Z,34.73
2023-02-16T02:23:34.088Z,30.80
2023-02-16T02:26:20.511Z,33.03
2023-02-16T02:29:26.078Z,33.57
2023-02-16T02:32:19.227Z,33.40
2023-02-16T02:35:15.596Z,34.53
2023-02-16T02:37:58.680Z,34.67
2023-02-16T02:41:15.443Z,31.60
2023-02-16T02:43:54.833Z,36.47
2023-02-16T02:46:28.352Z,33.47
2023-02-16T02:48:55.378Z,31.73
2023-02-16T02:51:31.081Z,31.40
2023-02-16T02:54:47.645Z,32.40
2023-02-16T02:58:04.079Z,34.30
2023-02-16T03:00:49.814Z,35.77
2023-02-16T03:03:19.701Z,35.33
2023-02-16T03:05:52.970Z,37.97
2023-02-16T03:08:25.673Z,30.93
2023-02-16T03:11:18.693Z,34.57
2023-02-16T03:13:52.524Z,35.63
2023-02-16T03:16:31.423Z,34.90
2023-02-16T03:19:18.331Z,38.77
2023-02-16T03:22:04.206Z,31.30
2023-02-16T03:24:51.796Z,34.90
2023-02-16T03:27:45.655Z,35.37
2023-02-16T03:30:15.380Z,35.43
2023-02-16T03:32:43.584Z,40.20
2023-02-16T03:35:12.761Z,32.83
2023-02-16T03:37:41.976Z,32.67
2023-02-16T03:40:29.484Z,35.00
2023-02-16T03:43:00.959Z,37.43
2023-02-16T03:45:28.965Z,37.27
2023-02-16T03:47:55.862Z,38.57
2023-02-16T03:50:23.569Z,34.60
2023-02-16T03:52:50.467Z,37.73
2023-02-16T03:55:17.411Z,41.80
2023-02-16T03:57:45.176Z,39.53
2023-02-16T04:00:12.804Z,39.47
2023-02-16T04:02:39.816Z,45.30
2023-02-16T04:05:07.043Z,41.63
2023-02-16T04:07:33.916Z,35.90
2023-02-16T04:10:00.756Z,43.10
2023-02-16T04:12:36.429Z,35.20
2023-02-16T04:15:16.766Z,34.73
2023-02-16T04:17:44.598Z,37.50
2023-02-16T04:20:16.169Z,39.80
2023-02-16T04:22:43.932Z,32.70
2023-02-16T04:25:11.202Z,38.87
2023-02-16T04:27:39.422Z,35.67
2023-02-16T04:30:09.836Z,34.17
2023-02-16T04:32:37.321Z,35.60
2023-02-16T04:35:05.626Z,40.73
2023-02-16T04:37:32.630Z,35.90
2023-02-16T04:39:59.662Z,35.00
2023-02-16T04:42:26.457Z,35.97
2023-02-16T04:44:53.504Z,35.63
2023-02-16T04:47:21.764Z,37.43
2023-02-16T04:49:50.312Z,46.03
2023-02-16T04:52:17.606Z,40.90
2023-02-16T04:54:44.539Z,35.93
2023-02-16T04:57:12.331Z,38.87
2023-02-16T04:59:39.262Z,35.80
2023-02-16T05:02:06.158Z,34.80
2023-02-16T05:04:33.180Z,37.03
2023-02-16T05:07:00.347Z,37.80
2023-02-16T05:09:27.163Z,34.33
2023-02-16T05:12:12.346Z,39.07
2023-02-16T05:14:42.063Z,36.00
2023-02-16T05:17:10.237Z,33.70
2023-02-16T05:19:37.133Z,39.47
2023-02-16T05:22:04.756Z,38.17
2023-02-16T05:24:31.739Z,36.03
2023-02-16T05:26:58.615Z,39.30
2023-02-16T05:29:25.442Z,35.23
2023-02-16T05:31:52.528Z,35.50
2023-02-16T05:34:19.591Z,34.23
2023-02-16T05:36:46.408Z,40.37
2023-02-16T05:39:13.267Z,35.43
2023-02-16T05:41:40.135Z,31.23
2023-02-16T05:44:08.185Z,55.83
2023-02-16T05:46:39.169Z,41.57
2023-02-16T05:49:07.363Z,42.50
2023-02-16T05:51:35.429Z,44.00
2023-02-16T05:54:03.406Z,49.27
2023-02-16T05:56:30.632Z,42.40
2023-02-16T05:59:00.306Z,47.10
2023-02-16T06:01:28.877Z,42.43
2023-02-16T06:03:55.798Z,43.50
2023-02-16T06:06:22.642Z,35.77
2023-02-16T06:08:49.453Z,40.20
2023-02-16T06:11:34.641Z,37.87
2023-02-16T06:14:09.293Z,42.50
2023-02-16T06:16:39.963Z,36.80
2023-02-16T06:19:07.602Z,45.00
2023-02-16T06:21:35.661Z,39.80
2023-02-16T06:24:03.233Z,45.30
2023-02-16T06:26:31.050Z,44.50
2023-02-16T06:28:58.425Z,49.60
2023-02-16T06:31:25.744Z,41.63
2023-02-16T06:33:53.962Z,38.70
2023-02-16T06:36:21.134Z,37.13
2023-02-16T06:38:48.032Z,43.77
2023-02-16T06:41:31.921Z,41.20
2023-02-16T06:44:06.372Z,41.60
2023-02-16T06:46:33.987Z,43.47
2023-02-16T06:49:01.022Z,42.10
2023-02-16T06:51:29.101Z,43.53
2023-02-16T06:53:56.125Z,43.60
2023-02-16T06:56:23.474Z,43.70
2023-02-16T06:58:50.956Z,44.77
2023-02-16T07:01:23.308Z,52.30
2023-02-16T07:03:52.119Z,42.17
2023-02-16T07:06:20.070Z,45.47
2023-02-16T07:08:46.955Z,38.90
2023-02-16T07:11:13.906Z,44.00
2023-02-16T07:13:40.807Z,41.43
2023-02-16T07:16:08.079Z,39.60
2023-02-16T07:18:35.753Z,38.77
2023-02-16T07:21:03.066Z,41.73
2023-02-16T07:23:30.158Z,47.83
2023-02-16T07:25:57.016Z,44.67
2023-02-16T07:28:24.713Z,49.23
2023-02-16T07:30:51.705Z,49.10
2023-02-16T07:33:19.823Z,57.63
2023-02-16T07:35:46.870Z,58.93
2023-02-16T07:38:14.172Z,53.63
2023-02-16T07:40:41.904Z,51.93
2023-02-16T07:43:09.054Z,58.23
2023-02-16T07:45:36.374Z,52.47
2023-02-16T07:48:03.516Z,54.37
2023-02-16T07:50:30.422Z,55.30
2023-02-16T07:52:57.402Z,60.43
2023-02-16T07:55:24.268Z,63.97
2023-02-16T07:57:55.335Z,56.10
2023-02-16T08:00:22.687Z,48.83
2023-02-16T08:02:49.855Z,41.93
2023-02-16T08:05:17.335Z,41.03
2023-02-16T08:07:46.606Z,36.10
2023-02-16T08:10:14.585Z,40.90
2023-02-16T08:12:42.052Z,39.40
2023-02-16T08:15:09.930Z,36.80
2023-02-16T08:17:37.165Z,39.20
2023-02-16T08:20:07.733Z,36.43
2023-02-16T08:22:36.113Z,32.80
2023-02-16T08:25:06.900Z,44.87
2023-02-16T08:27:34.176Z,38.60
2023-02-16T08:30:01.108Z,45.23
2023-02-16T08:32:28.292Z,40.10
2023-02-16T08:34:56.224Z,42.73
2023-02-16T08:37:23.055Z,42.70
2023-02-16T08:39:49.837Z,37.63
2023-02-16T08:42:17.366Z,18.07
2023-02-16T08:44:44.654Z,39.43
2023-02-16T08:47:12.289Z,36.03
2023-02-16T08:49:39.533Z,39.17
2023-02-16T08:52:06.796Z,39.87
2023-02-16T08:54:34.628Z,42.27
2023-02-16T08:57:03.067Z,37.00
2023-02-16T08:59:30.603Z,36.10
2023-02-16T09:02:01.410Z,34.67
2023-02-16T09:04:29.661Z,36.23
2023-02-16T09:06:58.387Z,37.40
2023-02-16T09:09:27.127Z,33.27
2023-02-16T09:11:54.296Z,26.37
2023-02-16T09:14:21.523Z,34.43
2023-02-16T09:16:48.935Z,32.03
2023-02-16T09:19:20.440Z,34.63
2023-02-16T09:21:50.811Z,35.20
2023-02-16T09:24:18.223Z,38.90
2023-02-16T09:26:45.066Z,39.80
2023-02-16T09:29:14.077Z,40.17
2023-02-16T09:31:42.253Z,40.00
2023-02-16T09:34:21.282Z,38.53
2023-02-16T09:36:49.142Z,34.13
2023-02-16T09:39:17.309Z,38.83
2023-02-16T09:42:19.295Z,39.40
2023-02-16T09:45:03.724Z,38.83
2023-02-16T09:47:37.139Z,36.70
2023-02-16T09:50:13.255Z,35.63
2023-02-16T09:52:52.303Z,35.43
2023-02-16T09:55:22.520Z,35.77
2023-02-16T09:57:55.619Z,36.10
2023-02-16T10:00:59.986Z,35.57
2023-02-16T10:04:06.021Z,32.47
2023-02-16T10:07:03.954Z,34.97
2023-02-16T10:09:34.795Z,36.23
2023-02-16T10:12:14.295Z,37.57
2023-02-16T10:14:50.562Z,35.90
2023-02-16T10:17:38.453Z,34.40
2023-02-16T10:20:16.215Z,29.03
2023-02-16T10:22:59.498Z,35.30
2023-02-16T10:25:37.684Z,38.57
2023-02-16T10:28:35.109Z,38.50
2023-02-16T10:31:12.853Z,39.87
2023-02-16T10:34:09.087Z,37.17
2023-02-16T10:37:03.233Z,35.53
2023-02-16T10:39:38.347Z,38.33
2023-02-16T10:42:33.386Z,35.73
2023-02-16T10:45:17.784Z,38.37
2023-02-16T10:47:47.084Z,36.13
2023-02-16T10:50:36.159Z,39.17
2023-02-16T10:53:13.950Z,37.97
2023-02-16T10:55:40.930Z,40.50
2023-02-16T10:58:28.510Z,36.40
2023-02-16T11:01:11.788Z,38.57
2023-02-16T11:03:50.110Z,36.03
2023-02-16T11:06:29.137Z,38.97
2023-02-16T11:09:00.940Z,35.00
2023-02-16T11:11:35.427Z,36.07
2023-02-16T11:14:20.999Z,36.97
2023-02-16T11:16:48.179Z,38.10
2023-02-16T11:19:26.019Z,35.33
2023-02-16T11:21:56.391Z,34.40
2023-02-16T11:24:36.853Z,30.53
2023-02-16T11:27:19.116Z,31.87
2023-02-16T11:29:46.095Z,28.97
2023-02-16T11:32:16.215Z,32.13
2023-02-16T11:34:49.259Z,39.87
2023-02-16T11:37:33.107Z,33.07
2023-02-16T11:40:22.062Z,30.63
2023-02-16T11:42:57.338Z,29.37
2023-02-16T11:45:35.603Z,35.50
2023-02-16T11:48:12.197Z,34.87
2023-02-16T11:50:56.675Z,33.70
2023-02-16T11:53:28.001Z,32.60
2023-02-16T11:56:10.736Z,42.13
2023-02-16T11:58:37.849Z,30.60
2023-02-16T12:01:38.605Z,32.33
2023-02-16T12:05:00.704Z,31.23
2023-02-16T12:07:58.432Z,33.67
2023-02-16T12:10:45.659Z,35.07
2023-02-16T12:13:41.701Z,35.47
2023-02-16T12:16:33.003Z,32.83
2023-02-16T12:19:43.189Z,32.67
2023-02-16T12:22:32.438Z,31.63
2023-02-16T12:25:28.200Z,34.23
2023-02-16T12:28:32.660Z,34.07
2023-02-16T12:31:47.229Z,28.20
2023-02-16T12:34:41.246Z,33.37
2023-02-16T12:37:39.852Z,30.03
2023-02-16T12:40:31.029Z,32.83
2023-02-16T12:43:18.528Z,28.23
2023-02-16T12:45:47.192Z,30.83
2023-02-16T12:48:36.301Z,30.07
2023-02-16T12:51:11.701Z,30.27
2023-02-16T12:54:01.034Z,31.77
2023-02-16T12:56:40.904Z,32.23
2023-02-16T12:59:34.334Z,30.23
2023-02-16T13:02:09.635Z,34.43
2023-02-16T13:05:08.964Z,28.83
2023-02-16T13:07:47.921Z,36.40
2023-02-16T13:10:18.195Z,32.77
2023-02-16T13:12:55.596Z,31.80
2023-02-16T13:15:38.896Z,29.47
2023-02-16T13:18:28.680Z,27.30
2023-02-16T13:21:53.238Z,28.47
2023-02-16T13:24:57.491Z,31.90
2023-02-16T13:28:23.593Z,30.70
2023-02-16T13:31:12.530Z,33.43
2023-02-16T13:34:12.893Z,33.53
2023-02-16T13:36:58.148Z,30.27
2023-02-16T13:40:15.081Z,32.37
2023-02-16T13:42:54.769Z,30.30
2023-02-16T13:45:27.172Z,31.25
2023-02-16T13:47:57.091Z,31.00
2023-02-16T13:50:31.730Z,28.30
2023-02-16T13:53:20.540Z,29.03
2023-02-16T13:55:50.703Z,31.45
2023-02-16T13:58:28.988Z,29.17
2023-02-16T14:00:56.030Z,29.30
2023-02-16T14:03:22.776Z,27.20
2023-02-16T14:06:33.198Z,29.73
2023-02-16T14:09:19.187Z,27.73
2023-02-16T14:11:54.727Z,27.35
2023-02-16T14:14:41.565Z,30.00
2023-02-16T14:17:21.672Z,31.50
2023-02-16T14:20:06.601Z,28.05
2023-02-16T14:22:59.982Z,26.35
2023-02-16T14:25:28.872Z,28.60
2023-02-16T14:28:21.918Z,25.67
2023-02-16T14:31:03.607Z,27.63
2023-02-16T14:34:21.399Z,28.20
2023-02-16T14:37:27.721Z,26.90
2023-02-16T14:40:07.731Z,26.88
2023-02-16T14:42:36.679Z,26.02
2023-02-16T14:45:55.378Z,27.77
2023-02-16T14:48:48.476Z,27.00
2023-02-16T14:51:52.482Z,25.13
2023-02-16T14:54:57.446Z,26.05
2023-02-16T14:57:47.890Z,27.30
2023-02-16T15:00:50.868Z,22.38
2023-02-16T15:03:23.475Z,24.63
2023-02-16T15:06:04.467Z,24.83
2023-02-16T15:08:36.900Z,26.37
2023-02-16T15:11:21.275Z,23.70
2023-02-16T15:13:53.174Z,24.17
2023-02-16T15:16:23.082Z,22.43
2023-02-16T15:18:55.085Z,19.93
2023-02-16T15:21:28.256Z,23.42
2023-02-16T15:23:59.062Z,23.73
2023-02-16T15:26:34.269Z,27.08
2023-02-16T15:29:29.342Z,23.43
2023-02-16T15:31:59.373Z,24.05
2023-02-16T15:34:34.759Z,25.15
2023-02-16T15:37:22.292Z,24.50
2023-02-16T15:40:08.598Z,24.00
2023-02-16T15:42:39.642Z,23.73
2023-02-16T15:45:33.409Z,21.67
2023-02-16T15:48:29.403Z,24.33
2023-02-16T15:51:34.810Z,24.40
2023-02-16T15:54:35.562Z,23.97
2023-02-16T15:57:15.813Z,25.15
2023-02-16T16:00:14.426Z,21.83
2023-02-16T16:02:49.001Z,26.23
2023-02-16T16:05:25.416Z,23.83
2023-02-16T16:07:54.230Z,24.83
2023-02-16T16:10:41.277Z,22.30
2023-02-16T16:13:18.100Z,21.10
2023-02-16T16:15:50.252Z,27.03
2023-02-16T16:18:46.660Z,24.33
2023-02-16T16:21:35.927Z,26.33
2023-02-16T16:24:06.431Z,23.73
2023-02-16T16:26:55.574Z,24.40
2023-02-16T16:29:45.827Z,24.10
2023-02-16T16:32:28.670Z,26.13
2023-02-16T16:34:56.080Z,27.93
2023-02-16T16:37:35.671Z,27.03
2023-02-16T16:40:28.035Z,29.73
2023-02-16T16:43:04.414Z,24.70
2023-02-16T16:45:48.578Z,28.13
2023-02-16T16:48:39.321Z,30.67
2023-02-16T16:51:15.266Z,26.53
2023-02-16T16:53:51.984Z,22.63
2023-02-16T16:56:19.847Z,25.77
2023-02-16T16:58:52.550Z,26.00
2023-02-16T17:01:21.317Z,24.07
2023-02-16T17:03:48.625Z,27.37
2023-02-16T17:06:17.532Z,26.10
2023-02-16T17:08:45.572Z,29.30
2023-02-16T17:11:42.173Z,26.67
2023-02-16T17:14:16.917Z,30.17
2023-02-16T17:16:50.853Z,30.87
2023-02-16T17:19:21.872Z,30.73
2023-02-16T17:21:49.377Z,27.77
2023-02-16T17:24:16.688Z,28.27
2023-02-16T17:26:43.829Z,30.80
2023-02-16T17:29:10.705Z,27.73
2023-02-16T17:31:37.636Z,25.83
2023-02-16T17:34:04.569Z,26.07
2023-02-16T17:36:31.449Z,29.57
2023-02-16T17:38:58.302Z,26.30
2023-02-16T17:41:29.388Z,25.50
2023-02-16T17:43:56.195Z,30.63
2023-02-16T17:46:25.455Z,27.90
2023-02-16T17:48:55.307Z,26.60
2023-02-16T17:51:25.473Z,27.37
2023-02-16T17:53:52.610Z,29.03
2023-02-16T17:56:23.552Z,26.63
2023-02-16T17:58:51.251Z,26.00
2023-02-16T18:01:19.699Z,32.10
2023-02-16T18:03:46.949Z,29.43
2023-02-16T18:06:16.969Z,25.90
2023-02-16T18:08:44.816Z,28.03
2023-02-16T18:11:12.605Z,29.83
2023-02-16T18:13:39.743Z,29.87
2023-02-16T18:16:08.430Z,27.47
2023-02-16T18:18:39.410Z,30.33
2023-02-16T18:21:06.721Z,27.17
2023-02-16T18:23:33.573Z,28.80
2023-02-16T18:26:00.375Z,28.93
2023-02-16T18:28:30.847Z,27.23
2023-02-16T18:30:58.532Z,32.93
2023-02-16T18:33:25.643Z,26.67
2023-02-16T18:35:56.067Z,29.43
2023-02-16T18:38:23.999Z,30.53
2023-02-16T18:40:53.934Z,29.70
2023-02-16T18:43:21.879Z,30.13
2023-02-16T18:45:49.417Z,29.57
2023-02-16T18:48:16.359Z,29.90
2023-02-16T18:50:43.280Z,31.13
2023-02-16T18:53:10.134Z,31.63
2023-02-16T18:55:37.045Z,29.47
2023-02-16T18:58:08.136Z,29.50
2023-02-16T19:00:37.017Z,29.87
2023-02-16T19:03:04.498Z,31.23
2023-02-16T19:05:33.179Z,28.37
2023-02-16T19:08:00.047Z,24.17
2023-02-16T19:10:27.445Z,27.20
2023-02-16T19:12:54.299Z,29.67
2023-02-16T19:15:21.173Z,29.87
2023-02-16T19:17:48.726Z,31.43
2023-02-16T19:20:18.474Z,31.43
2023-02-16T19:22:46.972Z,25.90
2023-02-16T19:25:15.148Z,28.13
2023-02-16T19:27:42.728Z,29.57
2023-02-16T19:30:10.916Z,27.40
2023-02-16T19:32:40.872Z,29.17
2023-02-16T19:35:11.962Z,24.63
2023-02-16T19:37:39.322Z,32.57
2023-02-16T19:40:08.585Z,26.80
2023-02-16T19:42:36.029Z,30.37
2023-02-16T19:45:03.651Z,27.53
2023-02-16T19:47:30.518Z,26.67
2023-02-16T19:49:57.699Z,28.80
2023-02-16T19:52:24.597Z,31.87
2023-02-16T19:54:51.600Z,28.50
2023-02-16T19:57:18.490Z,29.83
2023-02-16T19:59:45.350Z,27.03
2023-02-16T20:02:14.749Z,26.73
2023-02-16T20:04:43.351Z,26.13
2023-02-16T20:07:10.390Z,23.43
2023-02-16T20:09:37.752Z,21.70
2023-02-16T20:12:05.967Z,25.37
2023-02-16T20:14:32.753Z,25.27
2023-02-16T20:16:59.554Z,22.67
2023-02-16T20:19:26.458Z,22.53
2023-02-16T20:21:53.290Z,26.03
2023-02-16T20:24:20.511Z,21.27
2023-02-16T20:26:49.161Z,23.37
2023-02-16T20:29:20.584Z,22.70
2023-02-16T20:31:52.855Z,26.23
2023-02-16T20:34:21.204Z,24.10
2023-02-16T20:36:48.422Z,22.60
2023-02-16T20:39:16.163Z,25.73
2023-02-16T20:41:43.377Z,25.40
2023-02-16T20:44:11.782Z,24.87
2023-02-16T20:46:40.311Z,24.23
2023-02-16T20:49:08.288Z,23.60
2023-02-16T20:51:37.019Z,27.07
2023-02-16T20:54:04.816Z,27.37
2023-02-16T20:56:31.628Z,26.47
2023-02-16T20:58:58.936Z,26.10
2023-02-16T21:01:41.443Z,28.50
2023-02-16T21:04:09.259Z,28.57
2023-02-16T21:06:37.569Z,32.93
2023-02-16T21:09:06.228Z,28.23
2023-02-16T21:11:33.958Z,28.70
2023-02-16T21:14:02.235Z,27.87
2023-02-16T21:16:29.805Z,31.70
2023-02-16T21:18:57.048Z,39.40
2023-02-16T21:21:24.261Z,37.93
2023-02-16T21:23:53.949Z,32.03
2023-02-16T21:26:24.663Z,28.10
2023-02-16T21:28:52.310Z,30.73
2023-02-16T21:31:23.254Z,27.80
2023-02-16T21:33:50.477Z,33.50
2023-02-16T21:36:25.193Z,30.23
2023-02-16T21:38:52.782Z,25.40
2023-02-16T21:41:27.476Z,30.00
2023-02-16T21:43:57.403Z,34.90
2023-02-16T21:46:25.810Z,26.87
2023-02-16T21:48:52.768Z,29.27
2023-02-16T21:51:24.402Z,32.47
2023-02-16T21:53:53.239Z,27.37
2023-02-16T21:56:39.134Z,31.47
2023-02-16T21:59:12.843Z,27.63
2023-02-16T22:01:53.205Z,28.53
2023-02-16T22:04:22.615Z,26.93
2023-02-16T22:06:50.997Z,27.23
2023-02-16T22:09:23.567Z,24.03
2023-02-16T22:11:51.909Z,25.83
2023-02-16T22:14:19.625Z,26.63
2023-02-16T22:16:48.214Z,27.00
2023-02-16T22:19:17.873Z,29.23
2023-02-16T22:21:47.102Z,28.83
2023-02-16T22:24:17.450Z,24.60
2023-02-16T22:26:45.688Z,27.63
2023-02-16T22:29:13.223Z,27.30
2023-02-16T22:31:46.866Z,23.23
2023-02-16T22:34:17.880Z,22.63
2023-02-16T22:36:45.876Z,27.20
2023-02-16T22:39:14.329Z,22.80
2023-02-16T22:41:41.429Z,22.13
2023-02-16T22:44:08.374Z,22.93
2023-02-16T22:46:35.250Z,24.90
2023-02-16T22:49:02.183Z,21.93
2023-02-16T22:51:30.739Z,19.90
2023-02-16T22:54:00.099Z,24.20
2023-02-16T22:56:27.426Z,20.87
2023-02-16T22:58:57.624Z,25.37
2023-02-16T23:01:26.621Z,26.50
2023-02-16T23:03:57.511Z,26.70
2023-02-16T23:06:34.601Z,26.30
2023-02-16T23:09:20.783Z,26.03
2023-02-16T23:11:49.746Z,22.83
2023-02-16T23:14:18.223Z,26.60
2023-02-16T23:16:52.134Z,30.03
2023-02-16T23:19:24.866Z,29.03
2023-02-16T23:21:52.849Z,27.53
2023-02-16T23:24:22.904Z,31.27
2023-02-16T23:26:50.341Z,32.10
2023-02-16T23:29:17.906Z,30.73
2023-02-16T23:31:47.150Z,31.50
2023-02-16T23:34:15.257Z,32.07
2023-02-16T23:36:42.488Z,36.40
2023-02-16T23:39:15.255Z,26.47
2023-02-16T23:41:43.135Z,31.40
2023-02-16T23:44:13.046Z,35.57
2023-02-16T23:46:39.958Z,33.50
2023-02-16T23:49:06.750Z,33.63
2023-02-16T23:51:34.817Z,28.60
2023-02-16T23:54:01.586Z,36.33
2023-02-16T23:56:29.028Z,29.50
2023-02-16T23:59:00.803Z,33.00
